Time;durP1;ratioP1;P1;durP2;ratioP2;P2;SDS_P1;SDS_P2;PMS_P1;PMS_P2;Temp;Humidity;BMP_temperature;BMP_pressure;BME280_temperature;BME280_humidity;BME280_pressure;Samples;Min_cycle;Max_cycle;Signal;HPM_P1;HPM_P2
2021/11/09 00:00:00;;;;;;;12.13;4.82;;;;;;;;;;4965867;28;20039;-57
2021/11/09 00:02:26;;;;;;;13.35;4.57;;;;;;;;;;4965359;28;20477;-57
2021/11/09 00:04:54;;;;;;;16.00;4.53;;;;;;;;;;4964919;28;20485;-57
2021/11/09 00:09:59;;;;;;;13.30;4.53;;;;;;;;;;4965070;28;20038;-57
2021/11/09 00:12:34;;;;;;;9.02;4.25;;;;;;;;;;4962203;28;20085;-56
2021/11/09 00:15:04;;;;;;;15.75;4.28;;;;;;;;;;4963977;28;20444;-57
2021/11/09 00:17:29;;;;;;;8.90;3.50;;;;;;;;;;4963425;28;20050;-58
2021/11/09 00:19:56;;;;;;;11.02;3.83;;;;;;;;;;4964567;28;20034;-57
2021/11/09 00:22:22;;;;;;;14.00;4.63;;;;;;;;;;4962527;28;20470;-57
2021/11/09 00:24:49;;;;;;;10.25;3.95;;;;;;;;;;4961112;28;20023;-58
2021/11/09 00:27:15;;;;;;;11.30;4.20;;;;;;;;;;4961583;28;20023;-57
2021/11/09 00:29:41;;;;;;;9.10;4.57;;;;;;;;;;4963581;28;20448;-57
2021/11/09 00:32:07;;;;;;;13.07;4.75;;;;;;;;;;4964030;28;20553;-57
2021/11/09 00:34:33;;;;;;;15.07;5.03;;;;;;;;;;4965898;28;20375;-58
2021/11/09 00:36:59;;;;;;;19.17;5.20;;;;;;;;;;4964298;28;20034;-58
2021/11/09 00:39:25;;;;;;;23.92;5.55;;;;;;;;;;4965768;28;20129;-58
2021/11/09 00:41:50;;;;;;;18.30;6.45;;;;;;;;;;4960692;28;20031;-57
2021/11/09 00:44:16;;;;;;;14.43;5.68;;;;;;;;;;4965517;28;20019;-57
2021/11/09 00:46:42;;;;;;;12.48;3.85;;;;;;;;;;4963567;28;20323;-58
2021/11/09 00:49:07;;;;;;;12.05;3.85;;;;;;;;;;4965025;28;20037;-57
2021/11/09 00:51:33;;;;;;;11.90;4.22;;;;;;;;;;4965943;28;20042;-57
2021/11/09 00:53:58;;;;;;;18.23;4.75;;;;;;;;;;4965302;28;20153;-57
2021/11/09 00:56:24;;;;;;;16.08;5.40;;;;;;;;;;4967071;28;20037;-57
2021/11/09 00:58:50;;;;;;;9.55;4.78;;;;;;;;;;4964247;28;20018;-57
2021/11/09 01:01:15;;;;;;;12.75;5.68;;;;;;;;;;4965259;28;20049;-58
2021/11/09 01:03:41;;;;;;;22.85;8.07;;;;;;;;;;4965839;28;20105;-58
2021/11/09 01:06:06;;;;;;;16.55;5.45;;;;;;;;;;4957013;28;20090;-56
2021/11/09 01:08:32;;;;;;;10.77;5.35;;;;;;;;;;4963193;28;20122;-58
2021/11/09 01:10:57;;;;;;;17.15;5.80;;;;;;;;;;4962272;28;20066;-57
2021/11/09 01:13:25;;;;;;;16.50;7.03;;;;;;;;;;4965115;28;20027;-58
2021/11/09 01:15:53;;;;;;;20.15;6.50;;;;;;;;;;4966416;28;20034;-57
2021/11/09 01:18:23;;;;;;;12.65;5.47;;;;;;;;;;4962493;28;20585;-58
2021/11/09 01:20:49;;;;;;;;;;;;;;;;;;4964981;28;20085;-57
2021/11/09 01:23:15;;;;;;;19.17;5.88;;;;;;;;;;4962682;28;19914;-57
2021/11/09 01:25:41;;;;;;;19.08;6.65;;;;;;;;;;4962020;28;20676;-57
2021/11/09 01:28:08;;;;;;;26.33;7.38;;;;;;;;;;4962406;28;20118;-56
2021/11/09 01:30:35;;;;;;;17.95;6.55;;;;;;;;;;4965096;28;20043;-58
2021/11/09 01:33:02;;;;;;;14.35;5.85;;;;;;;;;;4963016;28;20462;-57
2021/11/09 01:35:27;;;;;;;19.55;7.50;;;;;;;;;;4962277;28;20027;-57
2021/11/09 01:37:53;;;;;;;18.08;7.18;;;;;;;;;;4961428;28;20127;-58
2021/11/09 01:40:23;;;;;;;18.88;6.88;;;;;;;;;;4961564;28;20042;-57
2021/11/09 01:42:50;;;;;;;17.38;7.03;;;;;;;;;;4959938;28;20031;-57
2021/11/09 01:45:16;;;;;;;12.05;5.63;;;;;;;;;;4961960;28;20022;-57
2021/11/09 01:47:44;;;;;;;17.60;6.07;;;;;;;;;;4962878;28;20054;-58
2021/11/09 01:50:12;;;;;;;26.05;9.55;;;;;;;;;;4964518;28;20146;-57
2021/11/09 01:52:38;;;;;;;19.00;6.90;;;;;;;;;;4963476;28;20204;-58
2021/11/09 01:55:07;;;;;;;21.70;7.40;;;;;;;;;;4965339;28;20118;-56
2021/11/09 01:57:33;;;;;;;19.63;7.10;;;;;;;;;;4965461;28;20042;-58
2021/11/09 02:00:03;;;;;;;22.17;7.85;;;;;;;;;;4963114;28;20416;-58
2021/11/09 02:02:28;;;;;;;16.27;5.72;;;;;;;;;;4965446;28;20477;-58
2021/11/09 02:04:54;;;;;;;16.83;5.72;;;;;;;;;;4963592;28;20042;-57
2021/11/09 02:07:20;;;;;;;14.02;5.53;;;;;;;;;;4963758;28;20027;-57
2021/11/09 02:09:45;;;;;;;20.08;7.18;;;;;;;;;;4959664;28;20696;-57
2021/11/09 02:12:11;;;;;;;15.95;6.28;;;;;;;;;;4962472;28;20035;-57
2021/11/09 02:14:36;;;;;;;23.10;6.63;;;;;;;;;;4962760;28;20093;-58
2021/11/09 02:17:03;;;;;;;20.08;7.15;;;;;;;;;;4961877;28;20394;-58
2021/11/09 02:19:28;;;;;;;15.65;6.88;;;;;;;;;;4962675;28;20119;-57
2021/11/09 02:21:54;;;;;;;19.35;6.28;;;;;;;;;;4962485;28;20398;-57
2021/11/09 02:24:19;;;;;;;14.68;6.10;;;;;;;;;;4977551;28;20030;-58
2021/11/09 02:26:45;;;;;;;19.85;7.30;;;;;;;;;;4963917;28;20029;-57
2021/11/09 02:29:10;;;;;;;23.80;7.18;;;;;;;;;;4960064;28;20027;-58
2021/11/09 02:31:36;;;;;;;12.48;5.97;;;;;;;;;;4964247;28;20449;-58
2021/11/09 02:34:02;;;;;;;19.02;5.60;;;;;;;;;;4962568;28;20401;-58
2021/11/09 02:36:28;;;;;;;16.90;5.25;;;;;;;;;;4964158;28;20034;-58
2021/11/09 02:38:54;;;;;;;16.23;5.32;;;;;;;;;;4961363;28;20058;-58
2021/11/09 02:41:19;;;;;;;13.80;5.65;;;;;;;;;;4961577;28;20489;-58
2021/11/09 02:43:45;;;;;;;15.13;5.88;;;;;;;;;;4961718;28;20485;-58
2021/11/09 02:48:44;;;;;;;17.75;6.65;;;;;;;;;;4962009;28;20256;-58
2021/11/09 02:51:17;;;;;;;18.42;5.50;;;;;;;;;;4956798;28;20033;-58
2021/11/09 02:53:47;;;;;;;;;;;;;;;;;;;;;
2021/11/09 02:56:19;;;;;;;;;;;;;;;;;;;;;
2021/11/09 03:01:36;;;;;;;17.58;5.57;;;;;;;;;;4959776;28;20417;-58
2021/11/09 03:04:04;;;;;;;18.13;5.95;;;;;;;;;;4957646;28;20047;-57
2021/11/09 03:06:39;;;;;;;20.65;6.72;;;;;;;;;;4962604;28;20023;-58
2021/11/09 03:11:34;;;;;;;15.15;5.60;;;;;;;;;;4958847;28;20035;-59
2021/11/09 03:14:00;;;;;;;25.48;8.05;;;;;;;;;;4962083;28;20552;-58
2021/11/09 03:16:30;;;;;;;24.50;8.68;;;;;;;;;;4961563;28;20393;-59
2021/11/09 03:19:05;;;;;;;22.63;7.35;;;;;;;;;;4959652;28;20035;-58
2021/11/09 03:46:36;;;;;;;15.20;5.40;;;;;;;;;;4966984;28;20085;-58
2021/11/09 03:49:04;;;;;;;12.60;4.57;;;;;;;;;;4959386;28;20051;-58
2021/11/09 03:51:30;;;;;;;17.35;5.72;;;;;;;;;;4961645;28;20109;-58
2021/11/09 03:53:59;;;;;;;14.38;5.47;;;;;;;;;;4959712;28;20118;-58
2021/11/09 03:56:31;;;;;;;15.27;4.47;;;;;;;;;;4966209;28;20110;-58
2021/11/09 03:59:00;;;;;;;13.73;5.20;;;;;;;;;;4964964;28;20042;-57
2021/11/09 04:01:35;;;;;;;14.38;4.47;;;;;;;;;;4967732;28;20054;-57
2021/11/09 04:06:39;;;;;;;15.48;5.85;;;;;;;;;;4959942;28;20039;-57
2021/11/09 04:09:13;;;;;;;18.23;7.45;;;;;;;;;;4967895;28;20059;-57
2021/11/09 04:17:12;;;;;;;15.60;6.63;;;;;;;;;;4910452;29;20055;-58
2021/11/09 04:19:48;;;;;;;19.35;8.45;;;;;;;;;;4956276;28;20450;-57
2021/11/09 04:28:57;;;;;;;22.50;7.00;;;;;;;;;;4963142;28;20038;-57
2021/11/09 04:31:25;;;;;;;14.25;5.03;;;;;;;;;;4953367;28;20039;-58
2021/11/09 04:52:09;;;;;;;31.23;10.85;;;;;;;;;;4962417;28;20155;-58
2021/11/09 05:10:57;;;;;;;14.63;4.68;;;;;;;;;;4909010;29;20043;-57
2021/11/09 05:13:24;;;;;;;13.20;4.90;;;;;;;;;;4931507;28;20035;-58
2021/11/09 05:15:50;;;;;;;13.50;4.95;;;;;;;;;;4964013;28;20035;-57
2021/11/09 05:18:16;;;;;;;14.90;5.50;;;;;;;;;;4964021;28;20046;-57
2021/11/09 05:20:41;;;;;;;50.65;18.85;;;;;;;;;;4963009;28;20034;-57
2021/11/09 05:23:07;;;;;;;89.38;27.95;;;;;;;;;;4964877;28;20033;-58
2021/11/09 05:25:33;;;;;;;80.05;25.90;;;;;;;;;;4963545;28;20060;-57
2021/11/09 05:27:58;;;;;;;89.78;33.08;;;;;;;;;;4963090;28;20536;-58
2021/11/09 05:30:24;;;;;;;58.38;25.08;;;;;;;;;;4961886;28;20027;-58
2021/11/09 05:32:52;;;;;;;38.65;18.95;;;;;;;;;;4965365;28;20034;-58
2021/11/09 05:35:18;;;;;;;24.27;12.02;;;;;;;;;;4964381;28;20030;-58
2021/11/09 05:37:47;;;;;;;19.30;9.77;;;;;;;;;;4962412;28;20102;-58
2021/11/09 05:40:13;;;;;;;17.13;7.75;;;;;;;;;;4960845;28;20102;-57
2021/11/09 05:42:39;;;;;;;17.05;8.45;;;;;;;;;;4962849;28;20034;-58
2021/11/09 05:45:07;;;;;;;20.80;8.93;;;;;;;;;;4963660;28;20050;-58
2021/11/09 05:47:32;;;;;;;22.65;10.35;;;;;;;;;;4961272;28;20080;-58
2021/11/09 05:49:58;;;;;;;15.48;8.57;;;;;;;;;;4963485;28;20493;-57
2021/11/09 05:52:24;;;;;;;26.70;9.73;;;;;;;;;;4958493;28;20018;-58
2021/11/09 05:54:50;;;;;;;24.13;9.27;;;;;;;;;;4967141;28;20026;-58
2021/11/09 05:57:16;;;;;;;31.40;12.07;;;;;;;;;;4964105;28;20027;-57
2021/11/09 05:59:42;;;;;;;39.15;12.95;;;;;;;;;;4962537;28;20062;-57
2021/11/09 06:02:07;;;;;;;35.70;12.77;;;;;;;;;;4960038;28;20026;-58
2021/11/09 06:04:33;;;;;;;23.20;8.40;;;;;;;;;;4961944;28;20042;-58
2021/11/09 06:06:59;;;;;;;19.88;8.45;;;;;;;;;;4966369;28;20038;-58
2021/11/09 06:09:24;;;;;;;14.35;6.88;;;;;;;;;;4965824;28;20402;-58
2021/11/09 06:11:49;;;;;;;16.73;8.25;;;;;;;;;;4957688;28;20065;-58
2021/11/09 06:14:15;;;;;;;15.75;6.80;;;;;;;;;;4958296;28;20730;-57
2021/11/09 06:16:40;;;;;;;20.05;7.78;;;;;;;;;;4958461;28;22047;-58
2021/11/09 06:19:06;;;;;;;12.25;6.53;;;;;;;;;;4961334;28;20031;-58
2021/11/09 06:21:33;;;;;;;14.68;6.45;;;;;;;;;;4961355;28;20113;-58
2021/11/09 06:23:58;;;;;;;13.68;6.20;;;;;;;;;;4958905;28;20126;-58
2021/11/09 06:26:25;;;;;;;12.25;6.53;;;;;;;;;;4961419;28;20106;-57
2021/11/09 06:28:55;;;;;;;22.63;15.75;;;;;;;;;;4959544;28;20095;-57
2021/11/09 06:31:21;;;;;;;22.13;11.30;;;;;;;;;;4963066;28;20023;-58
2021/11/09 06:33:46;;;;;;;23.67;11.77;;;;;;;;;;4960658;28;20034;-58
2021/11/09 06:36:12;;;;;;;15.55;7.20;;;;;;;;;;4962256;28;20034;-58
2021/11/09 06:38:37;;;;;;;36.78;17.92;;;;;;;;;;4959705;28;20449;-59
2021/11/09 06:41:03;;;;;;;33.72;15.07;;;;;;;;;;4961552;28;20031;-57
2021/11/09 06:43:28;;;;;;;35.80;12.95;;;;;;;;;;4961509;28;20478;-58
2021/11/09 06:45:56;;;;;;;25.13;11.32;;;;;;;;;;4958788;28;20219;-57
2021/11/09 06:48:23;;;;;;;22.63;10.30;;;;;;;;;;4960807;28;20027;-57
2021/11/09 06:50:49;;;;;;;26.63;14.23;;;;;;;;;;4962253;28;20031;-58
2021/11/09 06:53:15;;;;;;;45.13;20.77;;;;;;;;;;4957972;28;20038;-57
2021/11/09 06:55:41;;;;;;;38.80;18.33;;;;;;;;;;4959504;28;20517;-57
2021/11/09 06:58:07;;;;;;;28.10;11.70;;;;;;;;;;4959744;28;20061;-59
2021/11/09 07:00:33;;;;;;;48.20;19.42;;;;;;;;;;4959169;28;20038;-58
2021/11/09 07:02:59;;;;;;;45.38;17.75;;;;;;;;;;4958475;28;20421;-58
2021/11/09 07:05:25;;;;;;;17.35;7.53;;;;;;;;;;4961442;28;20093;-57
2021/11/09 07:07:50;;;;;;;28.67;10.93;;;;;;;;;;4959744;28;20018;-57
2021/11/09 07:10:17;;;;;;;26.65;11.27;;;;;;;;;;4953888;28;20037;-57
2021/11/09 07:12:43;;;;;;;21.77;9.75;;;;;;;;;;4955774;28;20042;-58
2021/11/09 07:15:09;;;;;;;19.63;8.38;;;;;;;;;;4959441;28;20030;-57
2021/11/09 07:17:39;;;;;;;17.35;7.55;;;;;;;;;;4959664;28;20035;-57
2021/11/09 07:20:07;;;;;;;16.27;6.10;;;;;;;;;;4958262;28;20035;-58
2021/11/09 07:22:32;;;;;;;12.98;5.75;;;;;;;;;;4962546;28;20049;-58
2021/11/09 07:24:58;;;;;;;16.48;6.40;;;;;;;;;;4962085;28;20034;-57
2021/11/09 07:27:24;;;;;;;15.40;5.82;;;;;;;;;;4964758;28;20030;-57
2021/11/09 07:29:50;;;;;;;15.32;6.78;;;;;;;;;;4958386;28;20446;-57
2021/11/09 07:32:17;;;;;;;15.65;7.40;;;;;;;;;;4961622;28;20417;-57
2021/11/09 07:34:43;;;;;;;16.85;9.18;;;;;;;;;;4959558;28;20035;-57
2021/11/09 07:37:08;;;;;;;15.88;7.30;;;;;;;;;;4963236;28;20908;-58
2021/11/09 07:39:34;;;;;;;14.63;7.40;;;;;;;;;;4962679;28;20501;-58
2021/11/09 07:42:00;;;;;;;14.98;6.95;;;;;;;;;;4961440;28;20770;-56
2021/11/09 07:44:25;;;;;;;20.08;7.95;;;;;;;;;;4959739;28;20050;-58
2021/11/09 07:46:52;;;;;;;15.93;7.30;;;;;;;;;;4962453;28;20477;-57
2021/11/09 07:49:18;;;;;;;15.57;6.70;;;;;;;;;;4961011;28;20027;-57
2021/11/09 07:51:43;;;;;;;13.13;6.80;;;;;;;;;;4976229;28;20045;-58
2021/11/09 07:54:10;;;;;;;18.27;7.03;;;;;;;;;;4959569;28;20141;-58
2021/11/09 07:56:37;;;;;;;37.85;14.02;;;;;;;;;;4959979;28;20185;-57
2021/11/09 08:01:37;;;;;;;28.27;12.52;;;;;;;;;;4959690;28;20042;-57
2021/11/09 08:04:12;;;;;;;71.10;24.35;;;;;;;;;;4957748;28;20031;-57
2021/11/09 08:09:29;;;;;;;87.97;28.25;;;;;;;;;;4959450;28;20042;-57
2021/11/09 08:12:02;;;;;;;46.05;18.10;;;;;;;;;;4957533;28;20022;-57
2021/11/09 08:14:27;;;;;;;28.52;12.82;;;;;;;;;;4958641;28;20030;-58
2021/11/09 08:16:54;;;;;;;24.15;11.85;;;;;;;;;;4959296;28;20030;-58
2021/11/09 08:19:20;;;;;;;20.17;9.50;;;;;;;;;;4965450;28;20058;-58
2021/11/09 08:21:48;;;;;;;18.63;9.63;;;;;;;;;;4963215;28;20080;-58
2021/11/09 08:24:15;;;;;;;25.10;13.45;;;;;;;;;;4960625;28;20497;-58
2021/11/09 08:26:41;;;;;;;26.13;12.80;;;;;;;;;;4962719;28;20074;-58
2021/11/09 08:29:07;;;;;;;23.55;12.25;;;;;;;;;;4955850;28;20027;-58
2021/11/09 08:31:35;;;;;;;27.30;12.32;;;;;;;;;;4959073;28;20049;-58
2021/11/09 08:34:03;;;;;;;23.50;12.80;;;;;;;;;;4964606;28;20070;-58
2021/11/09 08:36:29;;;;;;;24.80;12.93;;;;;;;;;;4964682;28;20057;-58
2021/11/09 08:39:00;;;;;;;22.58;13.40;;;;;;;;;;4962411;28;20042;-59
2021/11/09 08:41:27;;;;;;;26.38;13.52;;;;;;;;;;4965128;28;20034;-58
2021/11/09 08:46:32;;;;;;;30.98;15.90;;;;;;;;;;4966367;28;20401;-58
2021/11/09 08:48:58;;;;;;;33.57;16.27;;;;;;;;;;4965560;28;20140;-58
2021/11/09 08:51:24;;;;;;;31.10;15.50;;;;;;;;;;4966140;28;20042;-59
2021/11/09 09:04:50;;;;;;;33.35;15.63;;;;;;;;;;4961596;28;20504;-58
2021/11/09 09:07:16;;;;;;;34.72;16.02;;;;;;;;;;4960624;28;20038;-58
2021/11/09 09:09:42;;;;;;;34.58;16.42;;;;;;;;;;4961363;28;20412;-57
2021/11/09 09:12:07;;;;;;;27.38;15.27;;;;;;;;;;4960602;28;20039;-59
2021/11/09 09:14:33;;;;;;;37.80;16.90;;;;;;;;;;4961069;28;20034;-57
2021/11/09 09:17:00;;;;;;;28.38;15.85;;;;;;;;;;4962910;28;20035;-57
2021/11/09 09:19:29;;;;;;;32.28;15.23;;;;;;;;;;4964946;28;20195;-58
2021/11/09 09:56:06;;;;;;;62.15;35.85;;;;;;;;;;4962621;28;20043;-58
2021/11/09 09:58:31;;;;;;;42.00;22.25;;;;;;;;;;4973678;28;20065;-58
2021/11/09 10:00:58;;;;;;;48.75;24.00;;;;;;;;;;4960300;28;20067;-58
2021/11/09 10:03:39;;;;;;;40.97;22.83;;;;;;;;;;4961062;28;20046;-58
2021/11/09 10:06:08;;;;;;;66.57;28.52;;;;;;;;;;4962623;28;20023;-58
2021/11/09 10:08:47;;;;;;;110.18;39.88;;;;;;;;;;4957490;28;20034;-59
2021/11/09 10:11:28;;;;;;;40.58;18.65;;;;;;;;;;4963194;28;20588;-58
2021/11/09 10:13:54;;;;;;;43.85;21.08;;;;;;;;;;4962712;28;20049;-58
2021/11/09 10:16:19;;;;;;;44.28;21.95;;;;;;;;;;4959631;28;20501;-58
2021/11/09 10:18:45;;;;;;;49.30;25.70;;;;;;;;;;4963039;28;20114;-58
2021/11/09 10:21:12;;;;;;;33.08;18.52;;;;;;;;;;4959295;28;20082;-58
2021/11/09 10:23:39;;;;;;;74.25;35.00;;;;;;;;;;4958798;28;20442;-57
2021/11/09 10:26:14;;;;;;;162.52;74.28;;;;;;;;;;4960990;28;20038;-57
2021/11/09 10:28:40;;;;;;;74.38;35.78;;;;;;;;;;4962947;28;20038;-57
2021/11/09 10:31:08;;;;;;;41.10;25.77;;;;;;;;;;4961943;28;20104;-57
2021/11/09 10:33:38;;;;;;;38.88;22.75;;;;;;;;;;4962795;28;20034;-57
2021/11/09 10:36:18;;;;;;;30.90;19.30;;;;;;;;;;4958137;28;20033;-58
2021/11/09 10:38:44;;;;;;;;;;;;;;;;;;4960247;28;20057;-58
2021/11/09 10:41:09;;;;;;;65.88;19.38;;;;;;;;;;4962526;28;19921;-58
2021/11/09 10:43:35;;;;;;;25.75;9.18;;;;;;;;;;4962389;28;20023;-57
2021/11/09 10:46:01;;;;;;;23.77;10.35;;;;;;;;;;4962318;28;20432;-57
2021/11/09 10:48:28;;;;;;;18.30;8.30;;;;;;;;;;4963222;28;20032;-57
2021/11/09 10:50:57;;;;;;;13.77;6.18;;;;;;;;;;4962694;28;20030;-58
2021/11/09 10:56:29;;;;;;;9.23;4.22;;;;;;;;;;4963849;28;20026;-58
2021/11/09 11:04:01;;;;;;;13.30;4.47;;;;;;;;;;4958770;28;20505;-58
2021/11/09 11:06:34;;;;;;;25.75;11.52;;;;;;;;;;4960414;28;20022;-58
2021/11/09 11:09:12;;;;;;;16.13;7.00;;;;;;;;;;4962691;28;20063;-59
2021/11/09 11:11:44;;;;;;;11.93;4.28;;;;;;;;;;4958234;28;20030;-58
2021/11/09 11:14:20;;;;;;;11.45;4.60;;;;;;;;;;4973081;28;20496;-58
2021/11/09 11:16:47;;;;;;;11.73;4.57;;;;;;;;;;4955864;28;20514;-58
2021/11/09 11:19:23;;;;;;;9.55;4.40;;;;;;;;;;4960683;28;21372;-57
2021/11/09 11:21:49;;;;;;;10.57;4.05;;;;;;;;;;4960852;28;20486;-57
2021/11/09 11:24:15;;;;;;;11.00;4.75;;;;;;;;;;4963165;28;20037;-57
2021/11/09 11:26:42;;;;;;;8.93;4.25;;;;;;;;;;4956041;28;20047;-57
2021/11/09 11:29:08;;;;;;;8.15;3.72;;;;;;;;;;4957101;28;20393;-58
2021/11/09 11:31:34;;;;;;;40.30;15.18;;;;;;;;;;4959798;28;20122;-57
2021/11/09 11:34:00;;;;;;;38.60;15.10;;;;;;;;;;4956661;28;20073;-57
2021/11/09 11:36:26;;;;;;;18.50;7.00;;;;;;;;;;4962542;28;20039;-57
2021/11/09 11:38:55;;;;;;;6.97;3.70;;;;;;;;;;4960067;28;20066;-57
2021/11/09 11:41:22;;;;;;;22.13;6.70;;;;;;;;;;4961243;28;20034;-57
2021/11/09 11:43:48;;;;;;;12.35;4.93;;;;;;;;;;4958330;28;20041;-58
2021/11/09 11:46:36;;;;;;;27.65;8.98;;;;;;;;;;4954887;28;20031;-57
2021/11/09 11:49:09;;;;;;;14.65;5.72;;;;;;;;;;4957532;28;20105;-57
2021/11/09 11:51:38;;;;;;;10.45;4.50;;;;;;;;;;4960136;28;20549;-57
2021/11/09 11:54:07;;;;;;;13.05;4.15;;;;;;;;;;4963150;28;20034;-56
2021/11/09 11:56:39;;;;;;;10.02;3.40;;;;;;;;;;4981679;28;20034;-59
2021/11/09 11:59:06;;;;;;;86.20;19.15;;;;;;;;;;4964290;28;20031;-58
2021/11/09 12:01:39;;;;;;;10.07;4.25;;;;;;;;;;4961944;28;20062;-59
2021/11/09 12:04:08;;;;;;;16.50;5.28;;;;;;;;;;4964271;28;20082;-59
2021/11/09 12:06:51;;;;;;;36.50;10.95;;;;;;;;;;4961706;28;20062;-59
2021/11/09 12:09:34;;;;;;;12.60;4.75;;;;;;;;;;4984582;28;20028;-59
2021/11/09 12:12:22;;;;;;;11.52;3.40;;;;;;;;;;4964555;28;20611;-58
2021/11/09 12:14:51;;;;;;;8.75;3.63;;;;;;;;;;4960971;28;20042;-59
2021/11/09 12:17:30;;;;;;;6.78;2.78;;;;;;;;;;4964833;28;20023;-57
2021/11/09 12:19:57;;;;;;;6.25;3.22;;;;;;;;;;4963613;28;20431;-59
2021/11/09 12:22:44;;;;;;;8.25;3.33;;;;;;;;;;4962684;28;20038;-58
2021/11/09 12:25:35;;;;;;;8.65;3.35;;;;;;;;;;4964891;28;20049;-58
2021/11/09 12:28:04;;;;;;;6.28;3.45;;;;;;;;;;4963237;28;20042;-58
2021/11/09 12:30:35;;;;;;;7.70;3.30;;;;;;;;;;4961979;28;20041;-59
2021/11/09 12:33:19;;;;;;;6.03;3.15;;;;;;;;;;4962528;28;20030;-59
2021/11/09 12:35:49;;;;;;;9.55;3.70;;;;;;;;;;4959313;28;20030;-57
2021/11/09 12:38:21;;;;;;;9.27;3.70;;;;;;;;;;4963126;28;20037;-58
2021/11/09 12:40:46;;;;;;;10.80;4.00;;;;;;;;;;4960285;28;20277;-58
2021/11/09 12:43:14;;;;;;;10.13;4.35;;;;;;;;;;4965875;28;20113;-58
2021/11/09 12:45:51;;;;;;;9.70;3.97;;;;;;;;;;4963851;28;20030;-59
2021/11/09 12:48:27;;;;;;;8.00;3.63;;;;;;;;;;4956306;28;20027;-58
2021/11/09 12:51:01;;;;;;;13.75;4.68;;;;;;;;;;4959815;28;20035;-58
2021/11/09 12:53:27;;;;;;;11.15;5.53;;;;;;;;;;4961959;28;20048;-59
2021/11/09 12:56:08;;;;;;;9.90;5.13;;;;;;;;;;4963775;28;20810;-58
2021/11/09 12:58:44;;;;;;;11.55;5.18;;;;;;;;;;4962774;28;20035;-59
2021/11/09 13:04:17;;;;;;;10.82;4.90;;;;;;;;;;4962572;28;20066;-58
2021/11/09 13:10:04;;;;;;;9.60;4.68;;;;;;;;;;4946217;28;20045;-58
2021/11/09 13:12:32;;;;;;;11.77;5.03;;;;;;;;;;4975233;28;20827;-58
2021/11/09 13:15:06;;;;;;;10.43;4.50;;;;;;;;;;4961120;28;20089;-58
2021/11/09 13:17:53;;;;;;;7.22;4.88;;;;;;;;;;4959784;28;20034;-59
2021/11/09 13:22:58;;;;;;;9.13;4.65;;;;;;;;;;4957167;28;20151;-58
2021/11/09 13:25:37;;;;;;;8.32;4.97;;;;;;;;;;4959459;28;20057;-58
2021/11/09 13:28:16;;;;;;;10.38;5.18;;;;;;;;;;4954102;28;20023;-59
2021/11/09 13:30:43;;;;;;;9.32;5.10;;;;;;;;;;4960243;28;20409;-58
2021/11/09 13:33:12;;;;;;;10.40;5.10;;;;;;;;;;4953707;28;20097;-58
2021/11/09 13:35:44;;;;;;;9.93;4.88;;;;;;;;;;4958699;28;20039;-59
2021/11/09 13:38:20;;;;;;;12.18;5.53;;;;;;;;;;4956304;28;20031;-58
2021/11/09 13:40:49;;;;;;;11.88;5.57;;;;;;;;;;4957475;28;20035;-59
2021/11/09 13:43:18;;;;;;;16.05;6.18;;;;;;;;;;4959932;28;20031;-58
2021/11/09 13:45:43;;;;;;;12.05;5.38;;;;;;;;;;4957088;28;20437;-58
2021/11/09 13:48:16;;;;;;;9.82;4.93;;;;;;;;;;4962842;28;20031;-59
2021/11/09 13:50:44;;;;;;;10.20;4.50;;;;;;;;;;4957474;28;20450;-59
2021/11/09 13:53:10;;;;;;;8.95;4.78;;;;;;;;;;4959169;28;20049;-58
2021/11/09 13:55:37;;;;;;;7.40;4.10;;;;;;;;;;4973528;28;20093;-59
2021/11/09 13:58:03;;;;;;;8.10;4.40;;;;;;;;;;4961241;28;20113;-57
2021/11/09 14:00:36;;;;;;;11.57;4.88;;;;;;;;;;4958361;28;20050;-59
2021/11/09 14:03:13;;;;;;;6.13;3.78;;;;;;;;;;4960771;28;20486;-59
2021/11/09 14:14:39;;;;;;;9.70;4.85;;;;;;;;;;4957523;28;20033;-57
2021/11/09 14:16:52;;;;;;;7.32;4.10;;;;;;;;;;4953006;28;20098;-59
2021/11/09 14:19:44;;;;;;;8.77;4.35;;;;;;;;;;4952355;28;20066;-58
2021/11/09 14:22:15;;;;;;;7.45;4.30;;;;;;;;;;4956154;28;20082;-59
2021/11/09 14:24:42;;;;;;;8.73;4.72;;;;;;;;;;4956954;28;20540;-58
2021/11/09 14:27:13;;;;;;;10.82;4.70;;;;;;;;;;4959660;28;20050;-58
2021/11/09 14:29:53;;;;;;;7.18;4.07;;;;;;;;;;4957474;28;20031;-57
2021/11/09 14:32:22;;;;;;;10.18;4.78;;;;;;;;;;4974581;28;20035;-59
2021/11/09 14:38:02;;;;;;;7.97;4.63;;;;;;;;;;4956371;28;20166;-58
2021/11/09 14:40:39;;;;;;;9.40;4.55;;;;;;;;;;4954436;28;20031;-59
2021/11/09 14:43:12;;;;;;;13.57;4.85;;;;;;;;;;4956851;28;20033;-59
2021/11/09 14:48:16;;;;;;;8.93;4.72;;;;;;;;;;4960948;28;20022;-58
2021/11/09 14:53:32;;;;;;;12.43;6.20;;;;;;;;;;4960722;28;20059;-59
2021/11/09 14:56:06;;;;;;;15.95;7.43;;;;;;;;;;4961118;28;20062;-59
2021/11/09 14:58:37;;;;;;;10.40;5.43;;;;;;;;;;4960607;28;20026;-58
2021/11/09 15:01:19;;;;;;;9.07;5.40;;;;;;;;;;4958354;28;20062;-58
2021/11/09 15:04:01;;;;;;;11.70;5.07;;;;;;;;;;4958793;28;20146;-58
2021/11/09 15:06:37;;;;;;;10.35;5.35;;;;;;;;;;4962332;28;20034;-59
2021/11/09 15:11:42;;;;;;;11.82;5.28;;;;;;;;;;4958119;28;20524;-58
2021/11/09 15:30:38;;;;;;;10.75;5.32;;;;;;;;;;4957692;28;20492;-59
2021/11/09 15:33:04;;;;;;;11.27;5.78;;;;;;;;;;4955912;28;20030;-58
2021/11/09 15:35:44;;;;;;;14.45;6.53;;;;;;;;;;4955526;28;20039;-57
2021/11/09 15:38:09;;;;;;;14.23;5.43;;;;;;;;;;4957522;28;20359;-58
2021/11/09 15:40:35;;;;;;;10.90;5.68;;;;;;;;;;4956254;28;20089;-58
2021/11/09 15:43:01;;;;;;;18.55;5.85;;;;;;;;;;4962175;28;20037;-58
2021/11/09 15:45:27;;;;;;;16.60;8.00;;;;;;;;;;4958874;28;20023;-57
2021/11/09 15:47:53;;;;;;;16.27;7.10;;;;;;;;;;4957308;28;20099;-58
2021/11/09 15:50:18;;;;;;;13.48;6.22;;;;;;;;;;4960492;28;20031;-58
2021/11/09 15:52:44;;;;;;;18.48;8.85;;;;;;;;;;4956657;28;20030;-58
2021/11/09 15:55:10;;;;;;;22.20;9.98;;;;;;;;;;4961109;28;20042;-58
2021/11/09 15:57:36;;;;;;;31.08;13.30;;;;;;;;;;4960023;28;20032;-58
2021/11/09 16:00:06;;;;;;;20.17;8.55;;;;;;;;;;4958487;28;20034;-59
2021/11/09 16:02:32;;;;;;;14.65;7.63;;;;;;;;;;4962091;28;20030;-58
2021/11/09 16:04:58;;;;;;;18.83;8.85;;;;;;;;;;4973672;28;20111;-58
2021/11/09 16:07:25;;;;;;;21.52;8.35;;;;;;;;;;4959945;28;20456;-58
2021/11/09 16:09:54;;;;;;;15.77;7.15;;;;;;;;;;4960791;28;20382;-59
2021/11/09 16:12:21;;;;;;;16.90;6.50;;;;;;;;;;4959786;28;20473;-59
2021/11/09 16:14:47;;;;;;;14.88;8.13;;;;;;;;;;4965882;28;20030;-57
2021/11/09 16:17:14;;;;;;;24.73;11.77;;;;;;;;;;4961412;28;20036;-58
2021/11/09 16:19:40;;;;;;;24.90;11.45;;;;;;;;;;4957177;28;20418;-58
2021/11/09 16:22:09;;;;;;;16.15;8.65;;;;;;;;;;4958160;28;20037;-58
2021/11/09 16:24:35;;;;;;;19.97;9.33;;;;;;;;;;4959693;28;20065;-58
2021/11/09 16:27:00;;;;;;;22.02;11.55;;;;;;;;;;4960966;28;20062;-58
2021/11/09 16:29:57;;;;;;;19.45;10.68;;;;;;;;;;4965466;28;20062;-58
2021/11/09 16:32:29;;;;;;;19.92;10.57;;;;;;;;;;4955792;28;20058;-58
2021/11/09 16:35:09;;;;;;;15.52;9.00;;;;;;;;;;4959170;28;20490;-58
2021/11/09 16:37:36;;;;;;;20.88;11.05;;;;;;;;;;4957917;28;20396;-58
2021/11/09 16:40:06;;;;;;;25.77;12.77;;;;;;;;;;4958667;28;20066;-58
2021/11/09 16:42:39;;;;;;;24.58;11.13;;;;;;;;;;4961992;28;20031;-57
2021/11/09 16:45:07;;;;;;;21.95;9.68;;;;;;;;;;4966259;28;20035;-58
2021/11/09 16:47:34;;;;;;;23.30;10.98;;;;;;;;;;4964930;28;20031;-57
2021/11/09 16:52:27;;;;;;;15.90;8.40;;;;;;;;;;4963944;28;20058;-57
2021/11/09 17:05:28;;;;;;;;;;;;;;;;;;;;;
2021/11/09 18:20:09;;;;;;;29.88;12.65;;;;;;;;;;4960440;28;20428;-59
2021/11/09 18:22:47;;;;;;;41.67;17.27;;;;;;;;;;4962144;28;20081;-59
2021/11/09 18:25:16;;;;;;;32.85;15.63;;;;;;;;;;4962251;28;20483;-59
2021/11/09 18:27:43;;;;;;;26.33;12.63;;;;;;;;;;4959426;28;20042;-58
2021/11/09 18:30:13;;;;;;;25.48;13.10;;;;;;;;;;4960483;28;20383;-58
2021/11/09 18:32:39;;;;;;;25.75;13.30;;;;;;;;;;4958766;28;20038;-58
2021/11/09 18:35:07;;;;;;;27.77;13.27;;;;;;;;;;4961119;28;20034;-58
2021/11/09 18:37:33;;;;;;;22.00;12.07;;;;;;;;;;4960332;28;20493;-57
2021/11/09 18:39:58;;;;;;;24.23;11.90;;;;;;;;;;4961742;28;20203;-57
2021/11/09 18:42:28;;;;;;;22.52;11.88;;;;;;;;;;4961878;28;20027;-57
2021/11/09 18:44:54;;;;;;;;;;;;;;;;;;4962831;28;20061;-57
2021/11/09 18:47:20;;;;;;;28.23;13.68;;;;;;;;;;4960730;28;19922;-57
2021/11/09 18:49:45;;;;;;;26.45;13.52;;;;;;;;;;4962373;28;20122;-58
2021/11/09 18:52:11;;;;;;;31.63;13.65;;;;;;;;;;4961594;28;20081;-58
2021/11/09 18:54:37;;;;;;;28.13;12.95;;;;;;;;;;4960356;28;20147;-57
2021/11/09 18:57:04;;;;;;;44.97;17.88;;;;;;;;;;4959092;28;20572;-58
2021/11/09 18:59:31;;;;;;;45.45;18.33;;;;;;;;;;4954384;28;20050;-59
2021/11/09 19:01:57;;;;;;;41.92;17.35;;;;;;;;;;4963238;28;20039;-58
2021/11/09 19:04:25;;;;;;;32.13;14.48;;;;;;;;;;4961770;28;20026;-58
2021/11/09 19:06:50;;;;;;;30.27;14.00;;;;;;;;;;4962088;28;20038;-58
2021/11/09 19:09:18;;;;;;;31.10;13.13;;;;;;;;;;4962367;28;20766;-58
2021/11/09 19:11:47;;;;;;;24.98;12.30;;;;;;;;;;4960597;28;20042;-60
2021/11/09 19:14:13;;;;;;;25.00;12.23;;;;;;;;;;4957419;28;20524;-58